createdAt,value
2022-08-05T00:00:52.798Z,1.95
2022-08-05T00:01:55.469Z,2.13
2022-08-05T00:03:15.697Z,2.10
2022-08-05T00:04:18.028Z,2.97
2022-08-05T00:06:02.764Z,2.30
2022-08-05T00:06:44.633Z,2.47
2022-08-05T00:08:00.496Z,1.90
2022-08-05T00:09:04.293Z,2.22
2022-08-05T00:10:15.630Z,2.40
2022-08-05T00:11:20.579Z,2.20
2022-08-05T00:12:32.815Z,2.40
2022-08-05T00:13:39.478Z,2.20
2022-08-05T00:14:42.625Z,4.15
2022-08-05T00:15:55.578Z,2.45
2022-08-05T00:17:02.069Z,2.67
2022-08-05T00:18:04.826Z,2.08
2022-08-05T00:19:07.518Z,2.35
2022-08-05T00:20:10.177Z,2.30
2022-08-05T00:21:15.449Z,2.67
2022-08-05T00:22:18.011Z,2.13
2022-08-05T00:23:44.184Z,2.28
2022-08-05T00:24:42.844Z,2.60
2022-08-05T00:25:46.177Z,2.63
2022-08-05T00:26:51.735Z,2.53
2022-08-05T00:27:54.496Z,2.45
2022-08-05T00:28:57.942Z,2.65
2022-08-05T00:30:00.419Z,2.40
2022-08-05T00:31:07.532Z,2.60
2022-08-05T00:32:15.336Z,2.45
2022-08-05T00:34:53.874Z,2.42
2022-08-05T00:34:56.558Z,2.42
2022-08-05T00:36:14.943Z,2.60
2022-08-05T00:37:20.553Z,2.70
2022-08-05T00:38:28.839Z,2.80
2022-08-05T00:39:36.954Z,2.20
2022-08-05T00:40:51.848Z,2.88
2022-08-05T00:41:56.020Z,2.97
2022-08-05T00:42:58.909Z,2.60
2022-08-05T00:44:01.831Z,3.03
2022-08-05T00:45:05.552Z,2.55
2022-08-05T00:46:14.202Z,2.70
2022-08-05T00:47:16.479Z,2.80
2022-08-05T00:48:31.262Z,2.65
2022-08-05T00:49:44.779Z,3.08
2022-08-05T00:50:53.635Z,2.85
2022-08-05T00:51:56.166Z,2.47
2022-08-05T00:53:00.364Z,2.65
2022-08-05T00:54:04.468Z,2.47
2022-08-05T00:55:06.591Z,2.42
2022-08-05T00:56:09.273Z,2.55
2022-08-05T00:57:11.805Z,2.70
2022-08-05T00:58:16.724Z,2.40
2022-08-05T00:59:20.675Z,2.53
2022-08-05T01:00:26.010Z,2.58
2022-08-05T01:01:42.469Z,3.25
2022-08-05T01:02:50.163Z,2.75
2022-08-05T01:03:52.993Z,2.65
2022-08-05T01:04:55.110Z,2.60
2022-08-05T01:05:58.055Z,2.45
2022-08-05T01:07:00.166Z,3.15
2022-08-05T01:08:40.885Z,2.92
2022-08-05T01:09:31.691Z,3.53
2022-08-05T01:10:38.303Z,2.83
2022-08-05T01:11:41.397Z,2.55
2022-08-05T01:13:05.434Z,2.85
2022-08-05T01:14:15.762Z,2.90
2022-08-05T01:15:36.207Z,3.03
2022-08-05T01:16:42.484Z,3.55
2022-08-05T01:17:53.690Z,2.33
2022-08-05T01:19:07.886Z,3.05
2022-08-05T01:20:19.182Z,2.80
2022-08-05T01:21:42.705Z,2.90
2022-08-05T01:23:02.202Z,2.45
2022-08-05T01:24:31.165Z,2.97
2022-08-05T01:25:41.579Z,3.63
2022-08-05T01:26:52.213Z,3.33
2022-08-05T01:28:24.169Z,4.38
2022-08-05T01:29:30.678Z,3.30
2022-08-05T01:30:35.971Z,2.90
2022-08-05T01:31:44.996Z,3.65
2022-08-05T01:32:47.445Z,3.17
2022-08-05T01:33:53.769Z,2.78
2022-08-05T01:34:59.694Z,3.28
2022-08-05T01:36:07.074Z,3.22
2022-08-05T01:37:25.092Z,3.33
2022-08-05T01:38:29.983Z,3.72
2022-08-05T01:39:45.554Z,3.25
2022-08-05T01:40:48.698Z,3.05
2022-08-05T01:41:54.289Z,3.78
2022-08-05T01:42:57.699Z,3.40
2022-08-05T01:44:02.772Z,3.53
2022-08-05T01:45:08.263Z,3.88
2022-08-05T01:46:16.503Z,4.28
2022-08-05T01:47:38.687Z,3.70
2022-08-05T01:48:41.754Z,3.70
2022-08-05T01:50:02.094Z,3.80
2022-08-05T01:51:12.506Z,3.30
2022-08-05T01:52:18.014Z,3.92
2022-08-05T01:53:54.723Z,3.85
2022-08-05T01:54:46.547Z,4.22
2022-08-05T01:55:50.030Z,3.70
2022-08-05T01:58:09.881Z,4.10
2022-08-05T01:58:17.235Z,3.40
2022-08-05T01:59:22.165Z,4.10
2022-08-05T02:00:30.107Z,4.20
2022-08-05T02:01:39.993Z,4.13
2022-08-05T02:02:53.698Z,4.13
2022-08-05T02:03:57.106Z,4.03
2022-08-05T02:05:03.054Z,4.13
2022-08-05T02:06:33.360Z,3.88
2022-08-05T02:07:30.505Z,4.97
2022-08-05T02:08:32.299Z,4.78
2022-08-05T02:09:35.073Z,5.22
2022-08-05T02:10:42.032Z,4.60
2022-08-05T02:11:52.350Z,4.68
2022-08-05T02:12:58.343Z,4.60
2022-08-05T02:14:04.108Z,5.50
2022-08-05T02:15:12.858Z,4.43
2022-08-05T02:16:22.360Z,4.38
2022-08-05T02:18:15.178Z,5.28
2022-08-05T02:18:50.899Z,5.03
2022-08-05T02:19:56.117Z,4.78
2022-08-05T02:21:06.441Z,4.70
2022-08-05T02:22:26.443Z,4.93
2022-08-05T02:23:33.682Z,4.32
2022-08-05T02:24:39.479Z,5.40
2022-08-05T02:25:49.303Z,5.32
2022-08-05T02:26:56.952Z,4.13
2022-08-05T02:28:00.497Z,5.07
2022-08-05T02:29:04.042Z,5.35
2022-08-05T02:30:11.289Z,5.60
2022-08-05T02:31:17.124Z,4.60
2022-08-05T02:32:24.132Z,5.35
2022-08-05T02:33:38.322Z,5.45
2022-08-05T02:34:40.953Z,5.35
2022-08-05T02:35:55.905Z,5.85
2022-08-05T02:37:04.340Z,6.03
2022-08-05T02:38:09.153Z,5.40
2022-08-05T02:39:13.897Z,5.65
2022-08-05T02:40:16.667Z,5.72
2022-08-05T02:41:20.961Z,5.38
2022-08-05T02:42:28.123Z,5.93
2022-08-05T02:43:34.456Z,5.22
2022-08-05T02:44:39.406Z,5.40
2022-08-05T02:45:51.554Z,6.30
2022-08-05T02:47:00.208Z,6.10
2022-08-05T02:48:11.868Z,5.82
2022-08-05T02:49:16.758Z,5.97
2022-08-05T02:50:19.108Z,5.90
2022-08-05T02:51:28.250Z,6.30
2022-08-05T02:52:46.034Z,6.63
2022-08-05T02:53:48.459Z,5.68
2022-08-05T02:54:58.067Z,6.35
2022-08-05T02:56:04.104Z,6.50
2022-08-05T02:58:11.486Z,7.18
2022-08-05T02:58:37.091Z,6.55
2022-08-05T02:59:50.670Z,6.30
2022-08-05T03:00:56.172Z,7.03
2022-08-05T03:02:00.701Z,6.32
2022-08-05T03:03:03.055Z,6.57
2022-08-05T03:04:15.737Z,7.07
2022-08-05T03:05:21.959Z,7.25
2022-08-05T03:06:54.660Z,6.68
2022-08-05T03:08:07.344Z,6.90
2022-08-05T03:09:15.951Z,7.10
2022-08-05T03:10:30.046Z,6.72
2022-08-05T03:11:57.411Z,5.95
2022-08-05T03:12:55.080Z,7.30
2022-08-05T03:14:03.427Z,6.80
2022-08-05T03:15:09.200Z,7.63
2022-08-05T03:16:15.680Z,7.28
2022-08-05T03:17:20.301Z,6.93
2022-08-05T03:18:29.777Z,7.20
2022-08-05T03:19:35.954Z,7.53
2022-08-05T03:20:38.102Z,7.03
2022-08-05T03:21:49.593Z,7.40
2022-08-05T03:22:52.519Z,7.43
2022-08-05T03:23:55.593Z,7.28
2022-08-05T03:24:58.570Z,7.13
2022-08-05T03:26:31.799Z,6.43
2022-08-05T03:27:58.029Z,6.50
2022-08-05T03:28:56.738Z,7.20
2022-08-05T03:30:07.447Z,7.28
2022-08-05T03:31:41.488Z,7.38
2022-08-05T03:32:35.448Z,6.30
2022-08-05T03:33:52.910Z,7.40
2022-08-05T03:34:55.831Z,6.40
2022-08-05T03:35:59.255Z,7.63
2022-08-05T03:37:02.723Z,7.55
2022-08-05T03:38:04.367Z,7.32
2022-08-05T03:39:08.101Z,7.82
2022-08-05T03:40:15.323Z,7.53
2022-08-05T03:41:26.740Z,8.23
2022-08-05T03:42:51.557Z,6.97
2022-08-05T03:44:09.637Z,6.63
2022-08-05T03:45:21.090Z,7.88
2022-08-05T03:46:29.650Z,7.25
2022-08-05T03:47:35.611Z,7.45
2022-08-05T03:48:45.310Z,7.40
2022-08-05T03:49:51.316Z,7.72
2022-08-05T03:52:38.945Z,7.25
2022-08-05T03:52:48.882Z,7.53
2022-08-05T03:55:06.751Z,7.82
2022-08-05T03:56:05.517Z,7.22
2022-08-05T03:56:42.174Z,7.55
2022-08-05T03:57:45.812Z,7.35
2022-08-05T03:58:51.113Z,7.32
2022-08-05T03:59:56.252Z,7.15
2022-08-05T04:01:01.231Z,7.07
2022-08-05T04:02:09.245Z,7.07
2022-08-05T04:03:28.946Z,7.70
2022-08-05T04:04:33.091Z,6.63
2022-08-05T04:05:35.528Z,7.53
2022-08-05T04:06:38.540Z,7.45
2022-08-05T04:07:57.821Z,7.68
2022-08-05T04:09:01.307Z,7.70
2022-08-05T04:10:03.692Z,7.38
2022-08-05T04:11:08.549Z,7.90
2022-08-05T04:12:24.397Z,6.65
2022-08-05T04:13:49.314Z,7.40
2022-08-05T04:14:50.275Z,7.13
2022-08-05T04:16:04.779Z,7.85
2022-08-05T04:17:11.378Z,7.50
2022-08-05T04:18:20.608Z,7.63
2022-08-05T04:19:28.889Z,8.30
2022-08-05T04:20:30.777Z,7.63
2022-08-05T04:22:08.062Z,7.47
2022-08-05T04:22:56.948Z,8.27
2022-08-05T04:24:06.376Z,9.27
2022-08-05T04:25:11.685Z,8.50
2022-08-05T04:26:17.375Z,8.45
2022-08-05T04:27:33.113Z,8.82
2022-08-05T04:28:50.730Z,8.60
2022-08-05T04:29:53.235Z,8.32
2022-08-05T04:30:55.798Z,9.77
2022-08-05T04:31:58.383Z,8.80
2022-08-05T04:33:02.283Z,9.13
2022-08-05T04:34:18.674Z,8.52
2022-08-05T04:35:26.515Z,9.40
2022-08-05T04:36:50.412Z,8.88
2022-08-05T04:38:01.709Z,8.77
2022-08-05T04:39:05.711Z,9.10
2022-08-05T04:40:09.087Z,8.20
2022-08-05T04:41:14.412Z,9.52
2022-08-05T04:42:16.119Z,8.55
2022-08-05T04:43:22.090Z,8.88
2022-08-05T04:44:29.954Z,9.10
2022-08-05T04:45:48.120Z,8.63
2022-08-05T04:46:50.873Z,8.77
2022-08-05T04:47:55.489Z,8.57
2022-08-05T04:49:00.493Z,9.30
2022-08-05T04:50:11.374Z,8.30
2022-08-05T04:51:13.366Z,9.15
2022-08-05T04:52:16.214Z,8.27
2022-08-05T04:53:18.809Z,9.23
2022-08-05T04:54:22.231Z,9.02
2022-08-05T04:56:00.025Z,8.25
2022-08-05T04:56:47.353Z,8.85
2022-08-05T04:57:51.455Z,8.02
2022-08-05T04:58:54.261Z,8.43
2022-08-05T04:59:56.926Z,8.68
2022-08-05T05:00:59.758Z,9.30
2022-08-05T05:02:07.209Z,7.70
2022-08-05T05:03:23.941Z,8.50
2022-08-05T05:04:26.956Z,9.60
2022-08-05T05:05:30.715Z,9.18
2022-08-05T05:06:39.034Z,8.82
2022-08-05T05:07:52.769Z,8.70
2022-08-05T05:08:57.761Z,9.25
2022-08-05T05:10:04.082Z,8.75
2022-08-05T05:11:07.385Z,9.25
2022-08-05T05:12:09.894Z,8.60
2022-08-05T05:13:17.297Z,8.70
2022-08-05T05:14:19.022Z,9.02
2022-08-05T05:15:57.560Z,8.82
2022-08-05T05:16:53.426Z,8.90
2022-08-05T05:17:57.736Z,8.00
2022-08-05T05:19:18.898Z,8.23
2022-08-05T05:20:22.538Z,9.85
2022-08-05T05:21:30.773Z,8.43
2022-08-05T05:22:34.832Z,7.85
2022-08-05T05:24:03.992Z,9.05
2022-08-05T05:25:16.935Z,9.05
2022-08-05T05:26:20.115Z,8.95
2022-08-05T05:27:44.544Z,8.88
2022-08-05T05:28:47.650Z,8.85
2022-08-05T05:30:04.092Z,9.30
2022-08-05T05:31:08.791Z,7.65
2022-08-05T05:32:12.583Z,8.15
2022-08-05T05:33:23.482Z,8.63
2022-08-05T05:34:27.276Z,8.52
2022-08-05T05:35:34.443Z,8.82
2022-08-05T05:36:42.242Z,7.53
2022-08-05T05:38:01.335Z,8.73
2022-08-05T05:39:04.509Z,9.20
2022-08-05T05:40:07.936Z,7.55
2022-08-05T05:41:10.656Z,8.30
2022-08-05T05:42:13.957Z,9.07
2022-08-05T05:43:16.512Z,9.07
2022-08-05T05:44:36.574Z,7.68
2022-08-05T05:45:42.629Z,7.97
2022-08-05T05:46:49.905Z,8.25
2022-08-05T05:48:06.626Z,8.90
2022-08-05T05:49:22.343Z,8.80
2022-08-05T05:50:25.923Z,7.70
2022-08-05T05:51:28.890Z,9.18
2022-08-05T05:52:34.629Z,8.43
2022-08-05T05:53:54.414Z,8.63
2022-08-05T05:55:01.866Z,9.57
2022-08-05T05:56:09.634Z,9.15
2022-08-05T05:57:13.904Z,9.68
2022-08-05T05:58:20.981Z,8.98
2022-08-05T05:59:40.299Z,8.75
2022-08-05T06:00:45.914Z,9.10
2022-08-05T06:01:57.252Z,8.90
2022-08-05T06:03:02.234Z,9.48
2022-08-05T06:04:04.126Z,8.95
2022-08-05T06:05:10.166Z,9.35
2022-08-05T06:06:18.929Z,9.45
2022-08-05T06:07:41.785Z,9.73
2022-08-05T06:08:44.938Z,8.98
2022-08-05T06:10:01.380Z,8.48
2022-08-05T06:11:07.485Z,7.93
2022-08-05T06:12:09.634Z,8.57
2022-08-05T06:13:14.589Z,8.35
2022-08-05T06:14:16.214Z,10.02
2022-08-05T06:15:24.017Z,9.18
2022-08-05T06:16:31.006Z,8.20
2022-08-05T06:17:53.283Z,8.27
2022-08-05T06:18:56.833Z,7.68
2022-08-05T06:20:03.038Z,8.68
2022-08-05T06:21:04.870Z,6.70
2022-08-05T06:22:10.749Z,7.18
2022-08-05T06:23:13.832Z,7.53
2022-08-05T06:24:17.442Z,7.63
2022-08-05T06:26:00.115Z,8.35
2022-08-05T06:26:52.490Z,7.53
2022-08-05T06:28:10.839Z,7.40
2022-08-05T06:29:23.565Z,7.22
2022-08-05T06:30:40.013Z,7.32
2022-08-05T06:31:42.944Z,8.02
2022-08-05T06:32:48.045Z,7.22
2022-08-05T06:34:06.971Z,7.38
2022-08-05T06:35:15.270Z,7.63
2022-08-05T06:36:26.031Z,6.78
2022-08-05T06:37:57.937Z,7.93
2022-08-05T06:38:54.794Z,7.28
2022-08-05T06:39:57.562Z,7.47
2022-08-05T06:40:59.186Z,8.02
2022-08-05T06:42:04.183Z,7.15
2022-08-05T06:43:05.929Z,7.55
2022-08-05T06:44:28.485Z,7.13
2022-08-05T06:46:02.899Z,7.03
2022-08-05T06:46:52.641Z,7.00
2022-08-05T06:48:36.593Z,6.75
2022-08-05T06:49:18.909Z,7.78
2022-08-05T06:50:24.856Z,7.30
2022-08-05T06:51:30.114Z,6.80
2022-08-05T06:52:37.916Z,6.10
2022-08-05T06:53:41.782Z,6.18
2022-08-05T06:54:57.587Z,6.93
2022-08-05T06:56:00.771Z,6.55
2022-08-05T06:57:56.642Z,5.55
2022-08-05T06:58:34.765Z,5.75
2022-08-05T06:59:38.899Z,6.20
2022-08-05T07:00:44.977Z,5.55
2022-08-05T07:01:52.829Z,5.32
2022-08-05T07:02:54.733Z,5.65
2022-08-05T07:03:57.338Z,5.80
2022-08-05T07:05:02.802Z,4.88
2022-08-05T07:06:17.481Z,4.80
2022-08-05T07:07:24.059Z,5.18
2022-08-05T07:08:47.937Z,4.28
2022-08-05T07:09:55.391Z,5.07
2022-08-05T07:11:02.300Z,4.85
2022-08-05T07:12:05.304Z,4.95
2022-08-05T07:13:56.823Z,4.50
2022-08-05T07:15:08.778Z,5.15
2022-08-05T07:17:56.690Z,4.50
2022-08-05T07:18:00.305Z,4.78
2022-08-05T07:19:12.202Z,4.25
2022-08-05T07:20:37.123Z,3.70
2022-08-05T07:21:59.801Z,4.90
2022-08-05T07:23:04.580Z,4.20
2022-08-05T07:24:11.245Z,4.68
2022-08-05T07:25:22.663Z,6.07
2022-08-05T07:26:37.053Z,5.30
2022-08-05T07:27:58.585Z,5.32
2022-08-05T07:29:02.366Z,5.72
2022-08-05T07:30:28.016Z,4.85
2022-08-05T07:31:40.856Z,4.63
2022-08-05T07:32:53.306Z,4.75
2022-08-05T07:33:56.198Z,5.43
2022-08-05T07:35:01.552Z,5.45
2022-08-05T07:36:24.244Z,4.90
2022-08-05T07:37:29.182Z,5.05
2022-08-05T07:38:43.270Z,5.85
2022-08-05T07:40:25.974Z,5.65
2022-08-05T07:42:07.063Z,5.72
2022-08-05T07:42:36.194Z,5.65
2022-08-05T07:43:38.182Z,6.30
2022-08-05T07:44:43.141Z,6.18
2022-08-05T07:45:57.479Z,6.88
2022-08-05T07:47:00.881Z,6.20
2022-08-05T07:48:09.583Z,7.28
2022-08-05T07:49:13.784Z,6.80
2022-08-05T07:50:16.698Z,6.07
2022-08-05T07:51:23.805Z,6.05
2022-08-05T07:52:40.758Z,6.50
2022-08-05T07:53:49.989Z,6.85
2022-08-05T07:54:53.680Z,6.32
2022-08-05T07:56:05.101Z,6.50
2022-08-05T07:57:41.997Z,6.35
2022-08-05T07:58:57.403Z,6.20
2022-08-05T07:59:55.345Z,6.30
2022-08-05T08:00:57.276Z,6.00
2022-08-05T08:02:00.126Z,5.93
2022-08-05T08:03:14.569Z,5.18
2022-08-05T08:04:23.632Z,6.20
2022-08-05T08:05:49.296Z,5.85
2022-08-05T08:06:52.443Z,5.93
2022-08-05T08:07:59.775Z,5.30
2022-08-05T08:09:03.175Z,5.28
2022-08-05T08:10:05.427Z,4.90
2022-08-05T08:11:08.772Z,5.55
2022-08-05T08:12:27.309Z,5.60
2022-08-05T08:13:49.391Z,5.20
2022-08-05T08:15:02.456Z,5.07
2022-08-05T08:16:35.377Z,4.78
2022-08-05T08:17:28.098Z,4.60
2022-08-05T08:18:32.885Z,5.15
2022-08-05T08:20:43.758Z,4.95
2022-08-05T08:21:03.155Z,5.70
2022-08-05T08:22:06.201Z,5.25
2022-08-05T08:24:01.540Z,4.63
2022-08-05T08:24:51.555Z,5.47
2022-08-05T08:26:00.740Z,4.60
2022-08-05T08:27:03.014Z,4.75
2022-08-05T08:28:11.352Z,4.10
2022-08-05T08:30:03.144Z,4.40
2022-08-05T08:30:47.916Z,4.85
2022-08-05T08:31:53.121Z,4.53
2022-08-05T08:32:54.692Z,4.75
2022-08-05T08:33:57.241Z,4.38
2022-08-05T08:34:59.479Z,4.07
2022-08-05T08:36:29.679Z,4.18
2022-08-05T08:37:27.931Z,4.30
2022-08-05T08:38:32.178Z,4.07
2022-08-05T08:39:38.249Z,3.65
2022-08-05T08:40:51.742Z,4.13
2022-08-05T08:41:59.980Z,3.75
2022-08-05T08:45:16.187Z,3.72
2022-08-05T08:45:22.307Z,4.53
2022-08-05T08:45:54.345Z,4.10
2022-08-05T08:46:56.567Z,3.40
2022-08-05T08:48:07.531Z,4.10
2022-08-05T08:50:14.197Z,4.20
2022-08-05T08:51:23.283Z,3.47
2022-08-05T08:52:18.222Z,3.35
2022-08-05T08:53:21.131Z,3.40
2022-08-05T08:54:22.717Z,3.88
2022-08-05T08:56:03.002Z,3.33
2022-08-05T08:56:53.078Z,3.40
2022-08-05T08:57:59.200Z,3.72
2022-08-05T08:59:03.175Z,3.80
2022-08-05T09:00:15.684Z,4.07
2022-08-05T09:01:21.152Z,3.85
2022-08-05T09:02:26.792Z,4.93
2022-08-05T09:03:44.897Z,3.72
2022-08-05T09:05:16.093Z,4.40
2022-08-05T09:06:13.064Z,4.07
2022-08-05T09:07:28.414Z,3.58
2022-08-05T09:08:30.963Z,3.90
2022-08-05T09:09:35.417Z,4.25
2022-08-05T09:10:40.873Z,4.20
2022-08-05T09:11:51.612Z,4.70
2022-08-05T09:12:56.859Z,4.15
2022-08-05T09:14:53.960Z,4.28
2022-08-05T09:15:25.570Z,5.07
2022-08-05T09:16:27.466Z,4.43
2022-08-05T09:17:42.323Z,4.20
2022-08-05T09:18:48.632Z,4.82
2022-08-05T09:20:01.604Z,3.97
2022-08-05T09:21:11.725Z,3.75
2022-08-05T09:22:30.798Z,3.90
2022-08-05T09:23:37.444Z,3.70
2022-08-05T09:24:58.293Z,4.15
2022-08-05T09:26:08.544Z,3.38
2022-08-05T09:28:04.564Z,3.70
2022-08-05T09:28:55.492Z,3.53
2022-08-05T09:30:03.327Z,4.13
2022-08-05T09:31:43.444Z,3.70
2022-08-05T09:32:51.842Z,3.65
2022-08-05T09:33:58.432Z,4.85
2022-08-05T09:35:01.672Z,4.10
2022-08-05T09:36:11.738Z,3.70
2022-08-05T09:37:19.193Z,3.72
2022-08-05T09:38:56.571Z,4.38
2022-08-05T09:39:59.816Z,4.47
2022-08-05T09:41:05.896Z,4.30
2022-08-05T09:42:24.556Z,4.10
2022-08-05T09:43:40.635Z,4.38
2022-08-05T09:44:46.133Z,3.60
2022-08-05T09:46:06.791Z,4.07
2022-08-05T09:47:15.508Z,4.50
2022-08-05T09:48:29.182Z,3.95
2022-08-05T09:49:54.636Z,3.63
2022-08-05T09:50:56.127Z,3.03
2022-08-05T09:51:57.748Z,3.13
2022-08-05T09:53:01.602Z,3.33
2022-08-05T09:54:08.327Z,3.33
2022-08-05T09:55:56.991Z,2.65
2022-08-05T09:56:37.585Z,2.58
2022-08-05T09:57:43.330Z,3.13
2022-08-05T09:58:57.697Z,3.33
2022-08-05T10:00:05.979Z,2.78
2022-08-05T10:01:15.642Z,2.63
2022-08-05T10:02:37.304Z,3.33
2022-08-05T10:03:58.510Z,2.60
2022-08-05T10:05:11.483Z,2.92
2022-08-05T10:06:20.805Z,2.80
2022-08-05T10:08:10.873Z,2.65
2022-08-05T10:08:50.374Z,2.88
2022-08-05T10:10:13.938Z,3.83
2022-08-05T10:11:18.226Z,2.72
2022-08-05T10:12:32.223Z,2.97
2022-08-05T10:13:47.093Z,3.58
2022-08-05T10:14:49.711Z,3.38
2022-08-05T10:15:58.219Z,3.67
2022-08-05T10:17:36.828Z,3.83
2022-08-05T10:18:40.814Z,4.00
2022-08-05T10:20:03.933Z,3.50
2022-08-05T10:21:11.768Z,3.60
2022-08-05T10:22:29.540Z,3.47
2022-08-05T10:23:59.771Z,2.78
2022-08-05T10:24:56.901Z,2.65
2022-08-05T10:26:01.733Z,3.28
2022-08-05T10:27:04.477Z,3.10
2022-08-05T10:28:17.130Z,3.25
2022-08-05T10:29:23.549Z,2.75
2022-08-05T10:32:48.544Z,3.28
2022-08-05T10:32:54.432Z,3.10
2022-08-05T10:33:34.358Z,3.20
2022-08-05T10:34:40.871Z,3.90
2022-08-05T10:35:45.426Z,3.55
2022-08-05T10:36:50.426Z,3.78
2022-08-05T10:37:52.738Z,3.58
2022-08-05T10:39:01.097Z,3.58
2022-08-05T10:40:18.151Z,3.63
2022-08-05T10:41:27.241Z,3.47
2022-08-05T10:42:50.901Z,3.67
2022-08-05T10:43:56.522Z,3.30
2022-08-05T10:45:01.537Z,3.65
2022-08-05T10:46:06.465Z,3.58
2022-08-05T10:47:26.506Z,3.25
2022-08-05T10:48:52.564Z,3.03
2022-08-05T10:50:31.834Z,3.42
2022-08-05T10:51:57.335Z,3.40
2022-08-05T10:53:01.805Z,3.17
2022-08-05T10:54:23.398Z,3.25
2022-08-05T10:55:27.942Z,2.92
2022-08-05T10:56:31.552Z,3.25
2022-08-05T10:57:34.947Z,3.25
2022-08-05T10:58:50.535Z,3.13
2022-08-05T11:00:18.156Z,2.78
2022-08-05T11:01:55.290Z,3.13
2022-08-05T11:03:24.700Z,3.15
2022-08-05T11:04:30.942Z,3.10
2022-08-05T11:05:35.132Z,2.67
2022-08-05T11:07:06.811Z,2.50
2022-08-05T11:08:36.628Z,2.58
2022-08-05T11:09:45.434Z,2.47
2022-08-05T11:10:49.989Z,3.20
2022-08-05T11:12:03.087Z,2.40
2022-08-05T11:13:06.484Z,2.80
2022-08-05T11:14:11.403Z,2.33
2022-08-05T11:15:20.222Z,2.80
2022-08-05T11:16:47.455Z,2.50
2022-08-05T11:17:57.101Z,2.50
2022-08-05T11:20:11.337Z,2.10
2022-08-05T11:20:54.095Z,2.08
2022-08-05T11:21:57.870Z,2.30
2022-08-05T11:23:08.860Z,2.00
2022-08-05T11:24:30.603Z,2.80
2022-08-05T11:26:04.942Z,2.05
2022-08-05T11:27:51.169Z,2.00
2022-08-05T11:28:55.314Z,1.60
2022-08-05T11:30:01.346Z,1.50
2022-08-05T11:31:56.560Z,1.77
2022-08-05T11:33:34.721Z,1.45
2022-08-05T11:34:51.330Z,1.25
2022-08-05T11:36:08.212Z,1.58
2022-08-05T11:38:31.029Z,1.75
2022-08-05T11:38:54.514Z,1.50
2022-08-05T11:40:03.567Z,1.42
2022-08-05T11:41:34.415Z,1.15
2022-08-05T11:42:28.953Z,1.95
2022-08-05T11:44:04.551Z,2.10
2022-08-05T11:45:00.759Z,1.70
2022-08-05T11:46:16.182Z,1.70
2022-08-05T11:47:50.012Z,1.55
2022-08-05T11:48:48.198Z,1.75
2022-08-05T11:49:57.265Z,1.98
2022-08-05T11:51:02.513Z,2.20
2022-08-05T11:52:11.124Z,1.88
2022-08-05T11:53:14.308Z,2.22
2022-08-05T11:54:32.917Z,1.80
2022-08-05T11:55:36.228Z,1.85
2022-08-05T11:56:52.118Z,1.90
2022-08-05T11:58:07.979Z,1.73
2022-08-05T11:59:16.479Z,1.85
2022-08-05T12:00:27.567Z,1.73
2022-08-05T12:01:30.606Z,1.90
2022-08-05T12:02:33.765Z,2.10
2022-08-05T12:03:42.806Z,1.92
2022-08-05T12:04:59.724Z,2.00
2022-08-05T12:06:06.487Z,1.77
2022-08-05T12:07:16.044Z,2.20
2022-08-05T12:08:18.576Z,2.10
2022-08-05T12:09:38.546Z,2.25
2022-08-05T12:10:49.502Z,2.00
2022-08-05T12:11:55.367Z,2.28
2022-08-05T12:13:03.729Z,2.25
2022-08-05T12:14:18.755Z,2.25
2022-08-05T12:15:20.834Z,2.45
2022-08-05T12:16:45.217Z,2.67
2022-08-05T12:18:10.077Z,2.60
2022-08-05T12:20:16.627Z,2.00
2022-08-05T12:20:38.470Z,1.85
2022-08-05T12:21:47.822Z,2.00
2022-08-05T12:22:51.825Z,1.98
2022-08-05T12:23:56.257Z,2.05
2022-08-05T12:24:59.208Z,2.35
2022-08-05T12:26:00.775Z,1.75
2022-08-05T12:27:09.418Z,1.60
2022-08-05T12:28:15.034Z,2.20
2022-08-05T12:29:22.883Z,2.33
2022-08-05T12:30:29.106Z,2.15
2022-08-05T12:31:46.193Z,1.92
2022-08-05T12:32:56.393Z,2.33
2022-08-05T12:33:58.366Z,2.63
2022-08-05T12:35:01.051Z,2.08
2022-08-05T12:36:08.229Z,2.67
2022-08-05T12:37:17.325Z,2.70
2022-08-05T12:38:22.357Z,2.20
2022-08-05T12:39:37.510Z,2.40
2022-08-05T12:40:44.197Z,2.83
2022-08-05T12:41:47.077Z,2.50
2022-08-05T12:42:50.630Z,2.67
2022-08-05T12:43:54.975Z,3.05
2022-08-05T12:45:03.211Z,2.38
2022-08-05T12:46:26.160Z,2.47
2022-08-05T12:47:32.472Z,2.90
2022-08-05T12:48:39.365Z,2.60
2022-08-05T12:50:04.251Z,2.70
2022-08-05T12:52:10.606Z,2.72
2022-08-05T12:52:39.663Z,2.88
2022-08-05T12:53:55.584Z,2.80
2022-08-05T12:54:58.526Z,2.50
2022-08-05T12:56:00.674Z,2.70
2022-08-05T12:57:05.101Z,2.70
2022-08-05T12:58:50.805Z,2.80
2022-08-05T13:01:56.878Z,2.75
2022-08-05T13:02:03.554Z,3.03
2022-08-05T13:02:37.106Z,2.80
2022-08-05T13:03:43.216Z,2.70
2022-08-05T13:04:52.582Z,2.42
2022-08-05T13:05:56.509Z,2.70
2022-08-05T13:07:00.940Z,3.05
2022-08-05T13:08:08.785Z,2.70
2022-08-05T13:09:13.870Z,2.75
2022-08-05T13:10:19.989Z,2.72
2022-08-05T13:12:01.503Z,2.60
2022-08-05T13:12:50.962Z,2.72
2022-08-05T13:14:06.516Z,2.55
2022-08-05T13:15:18.009Z,2.50
2022-08-05T13:16:27.759Z,2.28
2022-08-05T13:17:41.695Z,2.60
2022-08-05T13:18:51.142Z,2.70
2022-08-05T13:20:01.772Z,2.72
2022-08-05T13:21:03.872Z,2.35
2022-08-05T13:22:06.891Z,2.80
2022-08-05T13:23:10.176Z,2.97
2022-08-05T13:24:14.349Z,2.72
2022-08-05T13:25:51.651Z,2.95
2022-08-05T13:26:53.246Z,2.70
2022-08-05T13:27:57.303Z,2.78
2022-08-05T13:28:59.533Z,2.65
2022-08-05T13:30:34.868Z,2.50
2022-08-05T13:31:33.806Z,2.50
2022-08-05T13:32:50.545Z,2.80
2022-08-05T13:34:21.106Z,2.58
2022-08-05T13:35:15.351Z,2.58
2022-08-05T13:36:24.218Z,2.50
2022-08-05T13:37:34.956Z,2.75
2022-08-05T13:38:41.967Z,2.55
2022-08-05T13:40:16.257Z,2.20
2022-08-05T13:41:08.234Z,2.08
2022-08-05T13:42:13.967Z,1.85
2022-08-05T13:43:22.057Z,1.85
2022-08-05T13:44:24.910Z,1.92
2022-08-05T13:45:30.910Z,1.70
2022-08-05T13:46:37.887Z,1.65
2022-08-05T13:48:09.904Z,1.50
2022-08-05T13:49:16.435Z,1.60
2022-08-05T13:50:18.033Z,1.55
2022-08-05T13:51:36.634Z,1.85
2022-08-05T13:52:43.265Z,2.47
2022-08-05T13:53:47.558Z,1.70
2022-08-05T13:54:53.571Z,1.70
2022-08-05T13:55:58.916Z,1.58
2022-08-05T13:57:04.697Z,1.80
2022-08-05T13:58:07.927Z,1.60
2022-08-05T13:59:20.415Z,1.55
2022-08-05T14:00:26.794Z,1.70
2022-08-05T14:01:36.293Z,1.60
2022-08-05T14:02:45.836Z,1.73
2022-08-05T14:04:10.196Z,1.67
2022-08-05T14:05:29.337Z,1.35
2022-08-05T14:06:37.155Z,1.25
2022-08-05T14:08:00.772Z,1.38
2022-08-05T14:09:08.409Z,1.10
2022-08-05T14:10:12.038Z,1.52
2022-08-05T14:11:20.338Z,1.20
2022-08-05T14:12:32.581Z,1.40
2022-08-05T14:13:35.561Z,1.67
2022-08-05T14:14:38.116Z,1.00
2022-08-05T14:16:04.580Z,0.80
2022-08-05T14:17:02.477Z,1.00
2022-08-05T14:18:05.173Z,1.00
2022-08-05T14:19:07.799Z,0.60
2022-08-05T14:20:18.392Z,1.05
2022-08-05T14:22:08.336Z,0.75
2022-08-05T14:22:50.178Z,0.80
2022-08-05T14:23:53.104Z,0.90
2022-08-05T14:24:56.584Z,0.70
2022-08-05T14:25:59.743Z,0.70
2022-08-05T14:27:18.181Z,0.90
2022-08-05T14:28:26.355Z,0.82
2022-08-05T14:29:31.395Z,0.50
2022-08-05T14:30:33.064Z,0.80
2022-08-05T14:32:02.770Z,0.75
2022-08-05T14:32:59.399Z,0.52
2022-08-05T14:34:01.019Z,0.80
2022-08-05T14:35:04.325Z,0.93
2022-08-05T14:36:13.708Z,0.70
2022-08-05T14:37:15.337Z,0.90
2022-08-05T14:38:33.125Z,0.80
2022-08-05T14:39:49.726Z,0.57
2022-08-05T14:40:54.345Z,1.00
2022-08-05T14:42:19.466Z,1.10
2022-08-05T14:43:18.513Z,1.20
2022-08-05T14:44:22.000Z,1.33
2022-08-05T14:45:23.657Z,1.02
2022-08-05T14:46:28.961Z,0.70
2022-08-05T14:48:02.659Z,0.60
2022-08-05T14:48:53.922Z,0.68
2022-08-05T14:50:00.645Z,0.70
2022-08-05T14:51:05.826Z,1.10
2022-08-05T14:52:10.326Z,0.80
2022-08-05T14:53:21.075Z,0.85
2022-08-05T14:54:29.629Z,0.90
2022-08-05T14:55:39.117Z,0.70
2022-08-05T14:56:44.245Z,0.55
2022-08-05T14:57:54.360Z,1.23
2022-08-05T14:58:58.222Z,0.80
2022-08-05T15:00:00.783Z,0.70
2022-08-05T15:01:03.780Z,0.90
2022-08-05T15:02:16.103Z,1.00
2022-08-05T15:03:17.912Z,0.60
2022-08-05T15:04:22.366Z,0.80
2022-08-05T15:05:29.861Z,0.70
2022-08-05T15:06:32.898Z,0.63
2022-08-05T15:08:09.114Z,0.68
2022-08-05T15:08:59.170Z,0.50
2022-08-05T15:10:09.866Z,0.77
2022-08-05T15:11:11.937Z,0.75
2022-08-05T15:12:17.219Z,0.90
2022-08-05T15:13:19.018Z,0.50
2022-08-05T15:14:35.017Z,0.68
2022-08-05T15:15:55.402Z,0.50
2022-08-05T15:16:57.717Z,0.70
2022-08-05T15:18:03.769Z,0.60
2022-08-05T15:19:07.331Z,0.50
2022-08-05T15:20:25.703Z,0.82
2022-08-05T15:21:30.524Z,0.60
2022-08-05T15:22:33.170Z,0.60
2022-08-05T15:23:35.049Z,0.57
2022-08-05T15:24:40.633Z,0.63
2022-08-05T15:25:52.633Z,0.70
2022-08-05T15:26:56.024Z,0.50
2022-08-05T15:28:01.043Z,0.57
2022-08-05T15:29:02.742Z,0.70
2022-08-05T15:30:06.544Z,0.57
2022-08-05T15:31:09.119Z,0.50
2022-08-05T15:32:12.625Z,0.60
2022-08-05T15:33:56.790Z,0.65
2022-08-05T15:34:38.020Z,0.57
2022-08-05T15:35:45.399Z,0.63